Home > Products > Valid Products > TAF

000
FTUS43 KDMX 260106 AAA
TAFALO
TAF AMD
KALO 260106Z 2601/2624 34008KT P6SM SCT008 BKN018 OVC025
     FM260600 18004KT P6SM SCT008 BKN018 OVC025
     FM261500 20008KT P6SM BKN024
     FM261800 30012KT P6SM SCT025 BKN050=



000
FTUS43 KDMX 252334
TAFDSM
TAF
KDSM 252334Z 2600/2624 01010KT P6SM OVC018
     FM260300 01008KT P6SM SCT014 BKN020
     FM260800 19008KT P6SM BKN024
     FM261400 30010KT P6SM SCT024 BKN035
     FM261700 31015KT P6SM SCT035 BKN080=



000
FTUS43 KDMX 252334
TAFFOD
TAF
KFOD 252334Z 2600/2624 36008KT P6SM OVC018
     FM260600 20005KT P6SM BKN020 OVC040
     FM261400 32008KT P6SM SCT035 BKN050
     FM261800 32014KT P6SM SCT050 BKN100=



000
FTUS43 KDMX 252334
TAFMCW
TAF
KMCW 252334Z 2600/2624 34005KT P6SM OVC010
     FM260400 18009KT P6SM BKN016
     FM260800 21005KT P6SM SCT008 BKN010 OVC040
     FM261400 30011KT P6SM SCT015 BKN025
     FM261700 31015KT P6SM SCT015 BKN050=



000
FTUS43 KDMX 252334
TAFOTM
TAF
KOTM 252334Z 2600/2624 01010KT P6SM SCT010 BKN018
     FM260800 21008KT P6SM BKN020
     FM261200 19008KT P6SM SCT020 BKN025
     FM261700 26015KT P6SM SCT025 BKN050=



000
FTUS43 KDMX 252334
TAFALO
TAF
KALO 252334Z 2600/2624 01005KT P6SM SCT018 BKN025
     FM260200 33008KT P6SM SCT008 BKN018 OVC025
     FM260600 18004KT P6SM SCT008 BKN018 OVC025
     FM261500 20008KT P6SM BKN024
     FM261800 30012KT P6SM SCT025 BKN050=



000
FTUS43 KDMX 252334
TAFMCW
TAF
KMCW 252334Z 2600/2624 34005KT P6SM OVC010
     FM260400 18009KT P6SM BKN016
     FM260800 21005KT P6SM SCT008 BKN010 OVC040
     FM261400 30011KT P6SM SCT015 BKN025
     FM261700 31015KT P6SM SCT015 BKN050=



000
FTUS43 KDMX 252334
TAFDSM
TAF
KDSM 252334Z 2600/2624 01010KT P6SM OVC018
     FM260300 01008KT P6SM SCT014 BKN020
     FM260800 19008KT P6SM BKN024
     FM261400 30010KT P6SM SCT024 BKN035
     FM261700 31015KT P6SM SCT035 BKN080=



000
FTUS43 KDMX 252334
TAFFOD
TAF
KFOD 252334Z 2600/2624 36008KT P6SM OVC018
     FM260600 20005KT P6SM BKN020 OVC040
     FM261400 32008KT P6SM SCT035 BKN050
     FM261800 32014KT P6SM SCT050 BKN100=



000
FTUS43 KDMX 252334
TAFALO
TAF
KALO 252334Z 2600/2624 01005KT P6SM SCT018 BKN025
     FM260200 33008KT P6SM SCT008 BKN018 OVC025
     FM260600 18004KT P6SM SCT008 BKN018 OVC025
     FM261500 20008KT P6SM BKN024
     FM261800 30012KT P6SM SCT025 BKN050=



000
FTUS43 KDMX 252334
TAFOTM
TAF
KOTM 252334Z 2600/2624 01010KT P6SM SCT010 BKN018
     FM260800 21008KT P6SM BKN020
     FM261200 19008KT P6SM SCT020 BKN025
     FM261700 26015KT P6SM SCT025 BKN050=



000
FTUS43 KDMX 252230 AAA
TAFOTM
TAF AMD
KOTM 252230Z 2523/2618 01015KT P6SM BKN040
     FM260500 36009KT P6SM BKN020
     FM261000 20008KT P6SM BKN025=



000
FTUS43 KDMX 252230 AAA
TAFOTM
TAF AMD
KOTM 252230Z 2523/2618 01015KT P6SM BKN040
     FM260500 36009KT P6SM BKN020
     FM261000 20008KT P6SM BKN025=



000
FTUS43 KDMX 251739
TAFOTM
TAF
KOTM 251739Z 2518/2618 04017G25KT 5SM -SN OVC010
     FM251900 03015G23KT P6SM OVC015
     FM260500 36009KT P6SM BKN020
     FM261000 20008KT P6SM BKN025=



000
FTUS43 KDMX 251739
TAFALO
TAF
KALO 251739Z 2518/2618 02015KT P6SM SCT030 BKN040
     FM252300 01005KT P6SM BKN025
     FM260900 18008KT P6SM BKN020=



000
FTUS43 KDMX 251739
TAFFOD
TAF
KFOD 251739Z 2518/2618 36012KT P6SM OVC015
     FM252300 35008KT P6SM BKN020
     FM260700 20005KT P6SM BKN020 OVC040
     FM261500 32008KT P6SM SCT035=



000
FTUS43 KDMX 251739
TAFMCW
TAF
KMCW 251739Z 2518/2618 01014KT P6SM OVC010
     FM252100 36009KT P6SM BKN025
     FM260800 21005KT P6SM BKN025 OVC040
     FM261600 32011KT P6SM SCT025=



000
FTUS43 KDMX 251739
TAFDSM
TAF
KDSM 251739Z 2518/2618 02015G25KT P6SM OVC015
     FM252100 01013KT P6SM BKN025
     FM260000 01008KT P6SM BKN020
     FM260800 19008KT P6SM BKN020
     FM261600 32010KT P6SM SCT035=



000
FTUS43 KDMX 251604 AAB
TAFOTM
TAF AMD
KOTM 251604Z 2516/2612 03016G27KT 1SM -SN BR BKN008 OVC015
     FM251800 36015G25KT P6SM OVC015
     FM260500 20009KT P6SM SCT015 BKN080=



000
FTUS43 KDMX 251604 AAB
TAFOTM
TAF AMD
KOTM 251604Z 2516/2612 03016G27KT 1SM -SN BR BKN008 OVC015
     FM251800 36015G25KT P6SM OVC015
     FM260500 20009KT P6SM SCT015 BKN080=



000
FTUS43 KDMX 251603 AAA
TAFFOD
TAF AMD
KFOD 251603Z 2516/2612 02016KT P6SM OVC015
     FM252300 01008KT P6SM SCT025 BKN080
     FM260600 19005KT P6SM BKN030=



000
FTUS43 KDMX 251603 AAA
TAFFOD
TAF AMD
KFOD 251603Z 2516/2612 02016KT P6SM OVC015
     FM252300 01008KT P6SM SCT025 BKN080
     FM260600 19005KT P6SM BKN030=



000
FTUS43 KDMX 251602 AAA
TAFMCW
TAF AMD
KMCW 251602Z 2516/2612 03015KT P6SM BKN009 OVC014
     FM251700 02014KT P6SM SCT009 OVC017
     FM260500 20007KT P6SM SCT020 BKN150=



000
FTUS43 KDMX 251602 AAA
TAFMCW
TAF AMD
KMCW 251602Z 2516/2612 03015KT P6SM BKN009 OVC014
     FM251700 02014KT P6SM SCT009 OVC017
     FM260500 20007KT P6SM SCT020 BKN150=



000
FTUS43 KDMX 251600 AAA
TAFALO
TAF AMD
KALO 251600Z 2516/2612 04015G24KT P6SM OVC015
     FM251800 02015KT P6SM SCT015 OVC025
     FM260400 18005KT P6SM SCT020 BKN150=



000
FTUS43 KDMX 251600 AAA
TAFALO
TAF AMD
KALO 251600Z 2516/2612 04015G24KT P6SM OVC015
     FM251800 02015KT P6SM SCT015 OVC025
     FM260400 18005KT P6SM SCT020 BKN150=



000
FTUS43 KDMX 251526 AAA
TAFDSM
TAF AMD
KDSM 251526Z 2515/2612 02016KT 2SM -SN BR BKN005
     FM251630 02015G25KT 6SM BR SCT008 BKN014 OVC025
     FM260300 20007KT P6SM SCT050 BKN150=



000
FTUS43 KDMX 251526 AAA
TAFDSM
TAF AMD
KDSM 251526Z 2515/2612 02016KT 2SM -SN BR BKN005
     FM251630 02015G25KT 6SM BR SCT008 BKN014 OVC025
     FM260300 20007KT P6SM SCT050 BKN150=



000
FTUS43 KDMX 251437 AAA
TAFOTM
TAF AMD
KOTM 251437Z 2515/2612 02016G27KT 1SM -SN BR BKN005 OVC010
     FM251800 36015G25KT P6SM OVC015
     FM260500 20009KT P6SM SCT015 BKN080=



000
FTUS43 KDMX 251138
TAFALO
TAF
KALO 251138Z 2512/2612 06010KT 5SM -RASN BR OVC010
      TEMPO 2512/2515 03015KT 2SM -SN BR OVC007
     FM251500 03015G24KT 4SM -SN BR SCT008 OVC014
     FM251700 02015G21KT P6SM SCT015 OVC025
     FM260400 18005KT P6SM SCT020 BKN150=



000
FTUS43 KDMX 251138
TAFMCW
TAF
KMCW 251138Z 2512/2612 03016KT 2SM -SN BR BKN007 OVC012
     FM251400 03016G25KT P6SM BKN008 OVC014
     FM251700 02014G24KT P6SM SCT009 OVC017
     FM260500 20007KT P6SM SCT020 BKN150=



000
FTUS43 KDMX 251138
TAFDSM
TAF
KDSM 251138Z 2512/2612 36010KT P6SM VCSH OVC025
      TEMPO 2513/2516 02016G25KT 3SM -RASN BR BKN007
     FM251600 02015G25KT 6SM BR SCT008 BKN014 OVC025
     FM260300 20007KT P6SM SCT050 BKN150=



000
FTUS43 KDMX 251138
TAFMCW
TAF
KMCW 251138Z 2512/2612 03016KT 2SM -SN BR BKN007 OVC012
     FM251400 03016G25KT P6SM BKN008 OVC014
     FM251700 02014G24KT P6SM SCT009 OVC017
     FM260500 20007KT P6SM SCT020 BKN150=



000
FTUS43 KDMX 251138
TAFFOD
TAF
KFOD 251138Z 2512/2612 36007KT 4SM -SN BR OVC006
     FM251400 03015G21KT 6SM BR SCT004 OVC007
     FM251700 02015KT P6SM SCT015 BKN025
     FM252300 01008KT P6SM SCT025 BKN080
     FM260600 19005KT P6SM BKN030=



000
FTUS43 KDMX 251138
TAFOTM
TAF
KOTM 251138Z 2512/2612 07005KT 4SM -RA BR BKN006 OVC015
     FM251400 02016G27KT 2SM -RASN BR BKN006 OVC010
     FM251700 36015G25KT P6SM OVC015
     FM260500 20009KT P6SM SCT015 BKN080=



000
FTUS43 KDMX 251138
TAFALO
TAF
KALO 251138Z 2512/2612 06010KT 5SM -RASN BR OVC010
      TEMPO 2512/2515 03015KT 2SM -SN BR OVC007
     FM251500 03015G24KT 4SM -SN BR SCT008 OVC014
     FM251700 02015G21KT P6SM SCT015 OVC025
     FM260400 18005KT P6SM SCT020 BKN150=



000
FTUS43 KDMX 251138
TAFOTM
TAF
KOTM 251138Z 2512/2612 07005KT 4SM -RA BR BKN006 OVC015
     FM251400 02016G27KT 2SM -RASN BR BKN006 OVC010
     FM251700 36015G25KT P6SM OVC015
     FM260500 20009KT P6SM SCT015 BKN080=



000
FTUS43 KDMX 251138
TAFFOD
TAF
KFOD 251138Z 2512/2612 36007KT 4SM -SN BR OVC006
     FM251400 03015G21KT 6SM BR SCT004 OVC007
     FM251700 02015KT P6SM SCT015 BKN025
     FM252300 01008KT P6SM SCT025 BKN080
     FM260600 19005KT P6SM BKN030=



000
FTUS43 KDMX 251138
TAFDSM
TAF
KDSM 251138Z 2512/2612 36010KT P6SM VCSH OVC025
      TEMPO 2513/2516 02016G25KT 3SM -RASN BR BKN007
     FM251600 02015G25KT 6SM BR SCT008 BKN014 OVC025
     FM260300 20007KT P6SM SCT050 BKN150=



000
FTUS43 KDMX 251002 AAA
TAFALO
TAF AMD
KALO 251002Z 2510/2606 05005KT P6SM VCSH BKN015 OVC060
     FM251100 32009KT 2SM -RASN BR SCT004 BKN008 OVC025
      TEMPO 2512/2516 1SM -SN BR SCT002 BKN005 OVC010
     FM251600 03015G24KT 4SM BR SCT008 OVC016
     FM251900 02015KT P6SM SCT015 BKN025
     FM260000 36005KT P6SM SCT050 BKN100=



000
FTUS43 KDMX 251002 AAA
TAFALO
TAF AMD
KALO 251002Z 2510/2606 05005KT P6SM VCSH BKN015 OVC060
     FM251100 32009KT 2SM -RASN BR SCT004 BKN008 OVC025
      TEMPO 2512/2516 1SM -SN BR SCT002 BKN005 OVC010
     FM251600 03015G24KT 4SM BR SCT008 OVC016
     FM251900 02015KT P6SM SCT015 BKN025
     FM260000 36005KT P6SM SCT050 BKN100=



000
FTUS43 KDMX 251000 AAA
TAFDSM
TAF AMD
KDSM 251000Z 2510/2606 04012KT 5SM -RA BR OVC018
     FM251200 36012G20KT 2SM -RASN BR SCT004 BKN008 OVC015
      TEMPO 2513/2515 1SM -SN BR SCT002 BKN006 OVC010
     FM251500 01015G25KT 5SM BR SCT014 BKN018
     FM251800 02015G25KT P6SM SCT014 BKN025
     FM260200 36008KT P6SM SCT050 BKN100=



000
FTUS43 KDMX 251000 AAA
TAFOTM
TAF AMD
KOTM 251000Z 2510/2606 08004KT 6SM -RA BR BKN020 OVC030
     FM251300 03018G28KT 3SM -SN SCT005 OVC010
     FM251900 36015G25KT P6SM SCT010 BKN015
     FM260300 35010KT P6SM SCT015 BKN080=



000
FTUS43 KDMX 250958 AAA
TAFFOD
TAF AMD
KFOD 250958Z 2510/2606 35006KT P6SM SCT006 OVC013
     FM251130 35014KT 2SM -SN BR BKN005 OVC010
     FM251400 01015KT 4SM -SN BR OVC016
     FM251800 02015KT P6SM SCT015 BKN025
     FM252000 02010KT P6SM SCT025 BKN080=



000
FTUS43 KDMX 250958 AAA
TAFFOD
TAF AMD
KFOD 250958Z 2510/2606 35006KT P6SM SCT006 OVC013
     FM251130 35014KT 2SM -SN BR BKN005 OVC010
     FM251400 01015KT 4SM -SN BR OVC016
     FM251800 02015KT P6SM SCT015 BKN025
     FM252000 02010KT P6SM SCT025 BKN080=



000
FTUS43 KDMX 250530
TAFOTM
TAF
KOTM 250530Z 2506/2606 20008KT P6SM -RA SCT020 BKN050
     FM251000 30011KT 3SM -RA BKN015 OVC025
      TEMPO 2511/2513 2SM -RA BR SCT008 BKN010 OVC015
     FM251400 03018G28KT 3SM -SN SCT005 OVC010
     FM251900 36015G25KT P6SM SCT010 BKN015
     FM260300 35010KT P6SM SCT015 BKN080=



000
FTUS43 KDMX 250530
TAFDSM
TAF
KDSM 250530Z 2506/2606 23006KT P6SM -RA SCT020 BKN035
     FM250800 27010KT 3SM -RASN BKN025 OVC035
     FM251200 36012G20KT 2SM -SN BR SCT004 BKN008 OVC015
      TEMPO 2512/2514 1SM -SN BR SCT002 BKN006 OVC010
     FM251500 01015G25KT 5SM BR SCT014 BKN018
     FM251800 02015G25KT P6SM SCT014 BKN025
     FM260200 36008KT P6SM SCT050 BKN100=



000
FTUS43 KDMX 250530
TAFDSM
TAF
KDSM 250530Z 2506/2606 23006KT P6SM -RA SCT020 BKN035
     FM250800 27010KT 3SM -RASN BKN025 OVC035
     FM251200 36012G20KT 2SM -SN BR SCT004 BKN008 OVC015
      TEMPO 2512/2514 1SM -SN BR SCT002 BKN006 OVC010
     FM251500 01015G25KT 5SM BR SCT014 BKN018
     FM251800 02015G25KT P6SM SCT014 BKN025
     FM260200 36008KT P6SM SCT050 BKN100=



000
FTUS43 KDMX 250530
TAFALO
TAF
KALO 250530Z 2506/2606 07006KT P6SM VCSH SCT022 OVC050
      TEMPO 2508/2511 5SM -RASN BR SCT008 BKN015
     FM251100 32009KT 2SM -SN BR SCT004 BKN008 OVC025
      TEMPO 2512/2515 1SM -SN BR SCT002 BKN005 OVC010
     FM251600 03015G24KT 4SM BR SCT008 OVC016
     FM251900 02015KT P6SM SCT015 BKN025
     FM260000 36005KT P6SM SCT050 BKN100=



000
FTUS43 KDMX 250530
TAFFOD
TAF
KFOD 250530Z 2506/2606 34008KT P6SM -RA SCT015 OVC028
     FM250800 34008KT 2SM -SN BR BKN008 OVC015
      TEMPO 2509/2511 1SM -SN BR SCT002 BKN006 OVC010
     FM251400 01015KT 4SM BR OVC016
     FM251800 02015KT P6SM SCT015 BKN025
     FM252000 02010KT P6SM SCT025 BKN080=



000
FTUS43 KDMX 250530
TAFMCW
TAF
KMCW 250530Z 2506/2606 25006KT P6SM VCSH SCT015 OVC050
      TEMPO 2507/2509 5SM -RASN BR SCT008 BKN015
     FM250900 32009KT 2SM -SN BR SCT004 BKN008 OVC025
      TEMPO 2510/2513 1SM -SN BR SCT002 BKN005 OVC010
     FM251400 03015G25KT 4SM BR SCT008 OVC016
     FM251900 02015KT P6SM SCT015 BKN050
     FM260000 36005KT P6SM SCT050 BKN100=



000
FTUS43 KDMX 250530
TAFALO
TAF
KALO 250530Z 2506/2606 07006KT P6SM VCSH SCT022 OVC050
      TEMPO 2508/2511 5SM -RASN BR SCT008 BKN015
     FM251100 32009KT 2SM -SN BR SCT004 BKN008 OVC025
      TEMPO 2512/2515 1SM -SN BR SCT002 BKN005 OVC010
     FM251600 03015G24KT 4SM BR SCT008 OVC016
     FM251900 02015KT P6SM SCT015 BKN025
     FM260000 36005KT P6SM SCT050 BKN100=



000
FTUS43 KDMX 250530
TAFMCW
TAF
KMCW 250530Z 2506/2606 25006KT P6SM VCSH SCT015 OVC050
      TEMPO 2507/2509 5SM -RASN BR SCT008 BKN015
     FM250900 32009KT 2SM -SN BR SCT004 BKN008 OVC025
      TEMPO 2510/2513 1SM -SN BR SCT002 BKN005 OVC010
     FM251400 03015G25KT 4SM BR SCT008 OVC016
     FM251900 02015KT P6SM SCT015 BKN050
     FM260000 36005KT P6SM SCT050 BKN100=



000
FTUS43 KDMX 250530
TAFFOD
TAF
KFOD 250530Z 2506/2606 34008KT P6SM -RA SCT015 OVC028
     FM250800 34008KT 2SM -SN BR BKN008 OVC015
      TEMPO 2509/2511 1SM -SN BR SCT002 BKN006 OVC010
     FM251400 01015KT 4SM BR OVC016
     FM251800 02015KT P6SM SCT015 BKN025
     FM252000 02010KT P6SM SCT025 BKN080=



000
FTUS43 KDMX 250530
TAFOTM
TAF
KOTM 250530Z 2506/2606 20008KT P6SM -RA SCT020 BKN050
     FM251000 30011KT 3SM -RA BKN015 OVC025
      TEMPO 2511/2513 2SM -RA BR SCT008 BKN010 OVC015
     FM251400 03018G28KT 3SM -SN SCT005 OVC010
     FM251900 36015G25KT P6SM SCT010 BKN015
     FM260300 35010KT P6SM SCT015 BKN080=



000
FTUS43 KDMX 250419 AAA
TAFMCW
TAF AMD
KMCW 250419Z 2504/2524 25008KT P6SM VCSH SCT015 OVC050
      TEMPO 2506/2508 5SM -RASN BR SCT008 BKN015
     FM250800 32009KT 2SM -SN BR SCT008 BKN010 OVC028
     FM251200 03016G24KT 4SM -SN BR SCT008 OVC016
     FM251800 02015KT P6SM SCT015 BKN050=



000
FTUS43 KDMX 250419 AAA
TAFMCW
TAF AMD
KMCW 250419Z 2504/2524 25008KT P6SM VCSH SCT015 OVC050
      TEMPO 2506/2508 5SM -RASN BR SCT008 BKN015
     FM250800 32009KT 2SM -SN BR SCT008 BKN010 OVC028
     FM251200 03016G24KT 4SM -SN BR SCT008 OVC016
     FM251800 02015KT P6SM SCT015 BKN050=



000
FTUS43 KDMX 250417 AAA
TAFFOD
TAF AMD
KFOD 250417Z 2504/2524 25008KT P6SM -RA SCT015 OVC035
     FM250600 34008KT 2SM -SN BR BKN008 OVC015
     FM251200 01015KT 4SM -SN BR OVC016
     FM251500 02015KT P6SM SCT015 BKN025
     FM251800 02010KT P6SM SCT025 BKN080=



000
FTUS43 KDMX 250417 AAA
TAFFOD
TAF AMD
KFOD 250417Z 2504/2524 25008KT P6SM -RA SCT015 OVC035
     FM250600 34008KT 2SM -SN BR BKN008 OVC015
     FM251200 01015KT 4SM -SN BR OVC016
     FM251500 02015KT P6SM SCT015 BKN025
     FM251800 02010KT P6SM SCT025 BKN080=



000
FTUS43 KDMX 250311 AAA
TAFDSM
TAF AMD
KDSM 250311Z 2503/2524 23011KT P6SM -RA SCT020 BKN035
     FM250800 27010KT 3SM -RASN BKN018 OVC025
     FM251300 36015G25KT 2SM -SN BR SCT006 OVC014
     FM251800 02015G25KT P6SM SCT014 BKN025=



000
FTUS43 KDMX 250311 AAA
TAFDSM
TAF AMD
KDSM 250311Z 2503/2524 23011KT P6SM -RA SCT020 BKN035
     FM250800 27010KT 3SM -RASN BKN018 OVC025
     FM251300 36015G25KT 2SM -SN BR SCT006 OVC014
     FM251800 02015G25KT P6SM SCT014 BKN025=



000
FTUS43 KDMX 242342
TAFMCW
TAF
KMCW 242342Z 2500/2524 24008KT P6SM FEW050 BKN100
     FM250200 25008KT P6SM VCSH SCT015 OVC050
     FM250500 32009KT 2SM -SN BR BKN015 OVC028
     FM251200 03016G24KT 4SM -SN BR SCT008 OVC016
     FM251800 02015KT P6SM SCT015 BKN050=



000
FTUS43 KDMX 242342
TAFALO
TAF
KALO 242342Z 2500/2524 24008KT P6SM FEW050 BKN150
     FM250400 26007KT P6SM VCSH SCT022 OVC050
     FM250600 33005KT 5SM -RASN SCT015 BKN030
     FM250800 02005KT 2SM -SN BR BKN014 OVC026
     FM251200 03015KT 4SM BR SCT014 BKN018 OVC025
     FM252000 01012KT P6SM SCT018 BKN025=



000
FTUS43 KDMX 242342
TAFFOD
TAF
KFOD 242342Z 2500/2524 25009KT P6SM SCT050 BKN100
     FM250400 25008KT P6SM -RA SCT015 OVC030
     FM250600 34008KT 2SM -SN BR BKN008 OVC015
     FM251200 01015KT 4SM -SN BR OVC016
     FM251500 02015KT P6SM SCT015 BKN025
     FM251800 02010KT P6SM SCT025 BKN080=



000
FTUS43 KDMX 242342
TAFOTM
TAF
KOTM 242342Z 2500/2524 25010KT P6SM SCT030 BKN100
     FM250300 20008KT P6SM SCT020 BKN050
     FM251000 30011KT 4SM -RA BKN015 OVC025
     FM251400 03020G29KT 3SM -SN SCT008 OVC016
     FM251900 36018G28KT P6SM SCT015 BKN025=



000
FTUS43 KDMX 242342
TAFDSM
TAF
KDSM 242342Z 2500/2524 26010KT P6SM SKC
     FM250200 23011KT P6SM VCSH SCT020 BKN035
     FM250800 27010KT 3SM -RASN BKN018 OVC025
     FM251300 36015G25KT 2SM -SN BR SCT006 OVC014
     FM251800 02015G25KT P6SM SCT014 BKN025=



000
FTUS43 KDMX 242342
TAFOTM
TAF
KOTM 242342Z 2500/2524 25010KT P6SM SCT030 BKN100
     FM250300 20008KT P6SM SCT020 BKN050
     FM251000 30011KT 4SM -RA BKN015 OVC025
     FM251400 03020G29KT 3SM -SN SCT008 OVC016
     FM251900 36018G28KT P6SM SCT015 BKN025=



000
FTUS43 KDMX 242342
TAFALO
TAF
KALO 242342Z 2500/2524 24008KT P6SM FEW050 BKN150
     FM250400 26007KT P6SM VCSH SCT022 OVC050
     FM250600 33005KT 5SM -RASN SCT015 BKN030
     FM250800 02005KT 2SM -SN BR BKN014 OVC026
     FM251200 03015KT 4SM BR SCT014 BKN018 OVC025
     FM252000 01012KT P6SM SCT018 BKN025=



000
FTUS43 KDMX 242342
TAFDSM
TAF
KDSM 242342Z 2500/2524 26010KT P6SM SKC
     FM250200 23011KT P6SM VCSH SCT020 BKN035
     FM250800 27010KT 3SM -RASN BKN018 OVC025
     FM251300 36015G25KT 2SM -SN BR SCT006 OVC014
     FM251800 02015G25KT P6SM SCT014 BKN025=



000
FTUS43 KDMX 242342
TAFMCW
TAF
KMCW 242342Z 2500/2524 24008KT P6SM FEW050 BKN100
     FM250200 25008KT P6SM VCSH SCT015 OVC050
     FM250500 32009KT 2SM -SN BR BKN015 OVC028
     FM251200 03016G24KT 4SM -SN BR SCT008 OVC016
     FM251800 02015KT P6SM SCT015 BKN050=



000
FTUS43 KDMX 242342
TAFFOD
TAF
KFOD 242342Z 2500/2524 25009KT P6SM SCT050 BKN100
     FM250400 25008KT P6SM -RA SCT015 OVC030
     FM250600 34008KT 2SM -SN BR BKN008 OVC015
     FM251200 01015KT 4SM -SN BR OVC016
     FM251500 02015KT P6SM SCT015 BKN025
     FM251800 02010KT P6SM SCT025 BKN080=



000
FTUS43 KDMX 241740
TAFALO
TAF
KALO 241740Z 2418/2518 23008KT P6SM SCT150
     FM250300 28007KT P6SM VCSH SCT022 OVC050
     FM250500 33005KT 5SM -RASN SCT015 BKN030
     FM250800 02005KT 2SM -SN BR BKN008 OVC026=



000
FTUS43 KDMX 241740
TAFOTM
TAF
KOTM 241740Z 2418/2518 25010KT P6SM SKC
     FM250300 20008KT P6SM SCT020 BKN050
     FM250900 30011KT 4SM -RA BKN015 OVC025
     FM251400 03020G29KT 3SM -SN SCT008 OVC012=



000
FTUS43 KDMX 241740
TAFDSM
TAF
KDSM 241740Z 2418/2518 26010KT P6SM SKC
     FM250200 23011KT P6SM VCSH SCT020 BKN035
     FM250800 27010KT 3SM -RASN BKN012 OVC022
     FM251300 33020G28KT 2SM -SN BR SCT006 OVC010=



000
FTUS43 KDMX 241740
TAFFOD
TAF
KFOD 241740Z 2418/2518 25009KT P6SM SCT180
     FM250200 25008KT P6SM -RA SCT015 OVC030
     FM250600 34008KT 2SM -SN BR BKN008 OVC015
     FM251500 01015KT 4SM -SN BR OVC016=



000
FTUS43 KDMX 241740
TAFMCW
TAF
KMCW 241740Z 2418/2518 24008KT P6SM FEW180
     FM250100 25008KT P6SM VCSH SCT015 OVC100
     FM250500 32009KT 2SM -SN BR BKN013 OVC028
     FM250900 03016KT 4SM -SN BR BKN008 OVC016=



000
FTUS43 KDMX 241740
TAFALO
TAF
KALO 241740Z 2418/2518 23008KT P6SM SCT150
     FM250300 28007KT P6SM VCSH SCT022 OVC050
     FM250500 33005KT 5SM -RASN SCT015 BKN030
     FM250800 02005KT 2SM -SN BR BKN008 OVC026=



000
FTUS43 KDMX 241740
TAFDSM
TAF
KDSM 241740Z 2418/2518 26010KT P6SM SKC
     FM250200 23011KT P6SM VCSH SCT020 BKN035
     FM250800 27010KT 3SM -RASN BKN012 OVC022
     FM251300 33020G28KT 2SM -SN BR SCT006 OVC010=



000
FTUS43 KDMX 241740
TAFOTM
TAF
KOTM 241740Z 2418/2518 25010KT P6SM SKC
     FM250300 20008KT P6SM SCT020 BKN050
     FM250900 30011KT 4SM -RA BKN015 OVC025
     FM251400 03020G29KT 3SM -SN SCT008 OVC012=



000
FTUS43 KDMX 241740
TAFMCW
TAF
KMCW 241740Z 2418/2518 24008KT P6SM FEW180
     FM250100 25008KT P6SM VCSH SCT015 OVC100
     FM250500 32009KT 2SM -SN BR BKN013 OVC028
     FM250900 03016KT 4SM -SN BR BKN008 OVC016=



000
FTUS43 KDMX 241740
TAFFOD
TAF
KFOD 241740Z 2418/2518 25009KT P6SM SCT180
     FM250200 25008KT P6SM -RA SCT015 OVC030
     FM250600 34008KT 2SM -SN BR BKN008 OVC015
     FM251500 01015KT 4SM -SN BR OVC016=



000
FTUS43 KDMX 241138
TAFFOD
TAF
KFOD 241138Z 2412/2512 26007KT P6SM SKC
     FM250300 29009KT P6SM VCSH SCT015 BKN030
     FM250800 34014KT 3SM -SN BR BKN012 OVC025=



000
FTUS43 KDMX 241138
TAFDSM
TAF
KDSM 241138Z 2412/2512 28005KT P6SM SKC
     FM241900 24011KT P6SM SCT080 BKN150
     FM250900 32010KT P6SM VCSH BKN021 OVC050=



000
FTUS43 KDMX 241138
TAFOTM
TAF
KOTM 241138Z 2412/2512 28008KT P6SM SKC
     FM241800 25010KT P6SM SCT080 BKN150
     FM250400 20008KT P6SM SCT020 BKN050
     FM250900 30011KT P6SM VCSH BKN025 OVC050=



000
FTUS43 KDMX 241138
TAFMCW
TAF
KMCW 241138Z 2412/2512 28011KT P6SM SKC
     FM250100 25008KT P6SM VCSH SCT015 OVC100
     FM250700 02009KT 3SM -SN BR BKN013 OVC030=



000
FTUS43 KDMX 241138
TAFALO
TAF
KALO 241138Z 2412/2512 28007KT P6SM SKC
     FM242100 23008KT P6SM SCT080 BKN150
     FM250500 05005KT P6SM VCSH SCT015 BKN030
     FM250800 02005KT 4SM -SN BR BKN013 OVC030=



000
FTUS43 KDMX 241138
TAFOTM
TAF
KOTM 241138Z 2412/2512 28008KT P6SM SKC
     FM241800 25010KT P6SM SCT080 BKN150
     FM250400 20008KT P6SM SCT020 BKN050
     FM250900 30011KT P6SM VCSH BKN025 OVC050=



000
FTUS43 KDMX 241138
TAFFOD
TAF
KFOD 241138Z 2412/2512 26007KT P6SM SKC
     FM250300 29009KT P6SM VCSH SCT015 BKN030
     FM250800 34014KT 3SM -SN BR BKN012 OVC025=



000
FTUS43 KDMX 241138
TAFALO
TAF
KALO 241138Z 2412/2512 28007KT P6SM SKC
     FM242100 23008KT P6SM SCT080 BKN150
     FM250500 05005KT P6SM VCSH SCT015 BKN030
     FM250800 02005KT 4SM -SN BR BKN013 OVC030=



000
FTUS43 KDMX 241138
TAFDSM
TAF
KDSM 241138Z 2412/2512 28005KT P6SM SKC
     FM241900 24011KT P6SM SCT080 BKN150
     FM250900 32010KT P6SM VCSH BKN021 OVC050=



000
FTUS43 KDMX 241138
TAFMCW
TAF
KMCW 241138Z 2412/2512 28011KT P6SM SKC
     FM250100 25008KT P6SM VCSH SCT015 OVC100
     FM250700 02009KT 3SM -SN BR BKN013 OVC030=



000
FTUS43 KDMX 240520
TAFFOD
TAF
KFOD 240520Z 2406/2506 30007KT P6SM SKC
     FM241200 26008KT P6SM SCT080 BKN200
     FM250200 23006KT 5SM BR SCT015 BKN035=



000
FTUS43 KDMX 240520
TAFOTM
TAF
KOTM 240520Z 2406/2506 28010KT P6SM SCT050 BKN080
     FM241800 26010KT P6SM SCT080 BKN150
     FM250400 22008KT P6SM SCT020 BKN050=



000
FTUS43 KDMX 240520
TAFALO
TAF
KALO 240520Z 2406/2506 29008KT P6SM BKN080
     FM241700 25008KT P6SM SCT080 BKN150
     FM250300 20005KT 4SM -SN BR SCT015 BKN030=



000
FTUS43 KDMX 240520
TAFDSM
TAF
KDSM 240520Z 2406/2506 30008KT P6SM SCT080
     FM241600 26010KT P6SM SCT080 BKN150
     FM250000 24008KT P6SM SCT020 BKN050=



000
FTUS43 KDMX 240520
TAFALO
TAF
KALO 240520Z 2406/2506 29008KT P6SM BKN080
     FM241700 25008KT P6SM SCT080 BKN150
     FM250300 20005KT 4SM -SN BR SCT015 BKN030=



000
FTUS43 KDMX 240520
TAFOTM
TAF
KOTM 240520Z 2406/2506 28010KT P6SM SCT050 BKN080
     FM241800 26010KT P6SM SCT080 BKN150
     FM250400 22008KT P6SM SCT020 BKN050=



000
FTUS43 KDMX 240520
TAFMCW
TAF
KMCW 240520Z 2406/2506 30011KT P6SM SCT080
     FM241600 27008KT P6SM SCT080 BKN150
     FM250200 23005KT 4SM -SN BR SCT015 BKN030=



000
FTUS43 KDMX 240520
TAFMCW
TAF
KMCW 240520Z 2406/2506 30011KT P6SM SCT080
     FM241600 27008KT P6SM SCT080 BKN150
     FM250200 23005KT 4SM -SN BR SCT015 BKN030=



000
FTUS43 KDMX 240520
TAFDSM
TAF
KDSM 240520Z 2406/2506 30008KT P6SM SCT080
     FM241600 26010KT P6SM SCT080 BKN150
     FM250000 24008KT P6SM SCT020 BKN050=



000
FTUS43 KDMX 240520
TAFFOD
TAF
KFOD 240520Z 2406/2506 30007KT P6SM SKC
     FM241200 26008KT P6SM SCT080 BKN200
     FM250200 23006KT 5SM BR SCT015 BKN035=



000
FTUS43 KDMX 232330
TAFMCW
TAF
KMCW 232330Z 2400/2424 28010KT P6SM SCT100
     FM240400 30011KT P6SM SCT015 BKN080
     FM241400 28008KT P6SM SCT080 BKN150=



000
FTUS43 KDMX 232330
TAFFOD
TAF
KFOD 232330Z 2400/2424 30007KT P6SM SCT080
     FM241200 27008KT P6SM SCT080 BKN200=



000
FTUS43 KDMX 232330
TAFALO
TAF
KALO 232330Z 2400/2424 29008KT P6SM BKN080
     FM241600 27008KT P6SM SCT080 BKN150=



000
FTUS43 KDMX 232330
TAFOTM
TAF
KOTM 232330Z 2400/2424 24011KT P6SM BKN100
     FM240600 28010KT P6SM SCT050 BKN080
     FM241800 26010KT P6SM SCT080 BKN150=



000
FTUS43 KDMX 232330
TAFMCW
TAF
KMCW 232330Z 2400/2424 28010KT P6SM SCT100
     FM240400 30011KT P6SM SCT015 BKN080
     FM241400 28008KT P6SM SCT080 BKN150=



000
FTUS43 KDMX 232330
TAFFOD
TAF
KFOD 232330Z 2400/2424 30007KT P6SM SCT080
     FM241200 27008KT P6SM SCT080 BKN200=



000
FTUS43 KDMX 232330
TAFOTM
TAF
KOTM 232330Z 2400/2424 24011KT P6SM BKN100
     FM240600 28010KT P6SM SCT050 BKN080
     FM241800 26010KT P6SM SCT080 BKN150=



000
FTUS43 KDMX 232330
TAFDSM
TAF
KDSM 232330Z 2400/2424 27008KT P6SM BKN080
     FM240400 30008KT P6SM SCT080
     FM241600 27010KT P6SM SCT080 BKN150=



000
FTUS43 KDMX 232330
TAFALO
TAF
KALO 232330Z 2400/2424 29008KT P6SM BKN080
     FM241600 27008KT P6SM SCT080 BKN150=



000
FTUS43 KDMX 232330
TAFDSM
TAF
KDSM 232330Z 2400/2424 27008KT P6SM BKN080
     FM240400 30008KT P6SM SCT080
     FM241600 27010KT P6SM SCT080 BKN150=



000
FTUS43 KDMX 231727
TAFOTM
TAF
KOTM 231727Z 2318/2418 22011KT P6SM BKN120
     FM240100 26009KT P6SM SCT120
     FM240900 29008KT 6SM BR SCT010 BKN018=



000
FTUS43 KDMX 231727
TAFALO
TAF
KALO 231727Z 2318/2418 22011KT P6SM OVC120
     FM240000 29008KT P6SM SKC
     FM240700 29007KT 6SM BR SCT009 BKN017=



000
FTUS43 KDMX 231727
TAFFOD
TAF
KFOD 231727Z 2318/2418 22011KT P6SM OVC120
     FM232300 30007KT P6SM SKC
     FM240600 29005KT 6SM BR SCT008 BKN015=



000
FTUS43 KDMX 231727
TAFDSM
TAF
KDSM 231727Z 2318/2418 22011KT P6SM OVC120
     FM240000 27008KT P6SM SKC
     FM240800 29008KT 6SM BR SCT009 BKN016=



000
FTUS43 KDMX 231727
TAFMCW
TAF
KMCW 231727Z 2318/2418 22011KT P6SM OVC120
     FM232300 30009KT P6SM SKC
     FM240600 29007KT 6SM BR SCT007 BKN013=



000
FTUS43 KDMX 231135
TAFFOD
TAF
KFOD 231135Z 2312/2412 20008KT P6SM SKC
     FM231400 23010G16KT P6SM BKN150
     FM240000 32008KT P6SM SCT012 BKN035
     FM240400 30007KT P6SM OVC015=



000
FTUS43 KDMX 231135
TAFDSM
TAF
KDSM 231135Z 2312/2412 18008KT P6SM SKC
     FM231500 22012G18KT P6SM BKN100
     FM240000 26009KT P6SM BKN070
     FM240600 32011KT P6SM OVC012=



000
FTUS43 KDMX 231135
TAFALO
TAF
KALO 231135Z 2312/2412 20010KT P6SM SKC
     FM231500 21012G18KT P6SM BKN120
     FM240000 26008KT P6SM BKN080
     FM240400 31011KT P6SM OVC012=



000
FTUS43 KDMX 231135
TAFOTM
TAF
KOTM 231135Z 2312/2412 20007KT P6SM SKC
     FM231500 22012G17KT P6SM SKC
     FM240000 24008KT P6SM BKN100
     FM240700 30013KT P6SM OVC012=



000
FTUS43 KDMX 231135
TAFMCW
TAF
KMCW 231135Z 2312/2412 21011KT P6SM SKC
     FM231400 23014G20KT P6SM BKN120
     FM232300 28014G20KT P6SM SCT012 BKN150
     FM240300 31013G18KT P6SM OVC012=



000
FTUS43 KDMX 231135
TAFOTM
TAF
KOTM 231135Z 2312/2412 20007KT P6SM SKC
     FM231500 22012G17KT P6SM SKC
     FM240000 24008KT P6SM BKN100
     FM240700 30013KT P6SM OVC012=



000
FTUS43 KDMX 231135
TAFALO
TAF
KALO 231135Z 2312/2412 20010KT P6SM SKC
     FM231500 21012G18KT P6SM BKN120
     FM240000 26008KT P6SM BKN080
     FM240400 31011KT P6SM OVC012=



000
FTUS43 KDMX 231135
TAFMCW
TAF
KMCW 231135Z 2312/2412 21011KT P6SM SKC
     FM231400 23014G20KT P6SM BKN120
     FM232300 28014G20KT P6SM SCT012 BKN150
     FM240300 31013G18KT P6SM OVC012=



000
FTUS43 KDMX 231135
TAFFOD
TAF
KFOD 231135Z 2312/2412 20008KT P6SM SKC
     FM231400 23010G16KT P6SM BKN150
     FM240000 32008KT P6SM SCT012 BKN035
     FM240400 30007KT P6SM OVC015=



000
FTUS43 KDMX 231135
TAFDSM
TAF
KDSM 231135Z 2312/2412 18008KT P6SM SKC
     FM231500 22012G18KT P6SM BKN100
     FM240000 26009KT P6SM BKN070
     FM240600 32011KT P6SM OVC012=



000
FTUS43 KDMX 230539
TAFMCW
TAF
KMCW 230539Z 2306/2406 20011KT P6SM SKC
     FM231400 22012G18KT P6SM BKN120
     FM240000 31013G18KT P6SM OVC011=



000
FTUS43 KDMX 230539
TAFFOD
TAF
KFOD 230539Z 2306/2406 19010KT P6SM SKC
     FM231400 23010KT P6SM BKN150
     FM240000 32010KT P6SM OVC011=



000
FTUS43 KDMX 230539
TAFOTM
TAF
KOTM 230539Z 2306/2406 22006KT P6SM OVC022
      TEMPO 2306/2308 SCT022
     FM230800 20006KT P6SM SKC
     FM231600 22011G16KT P6SM SKC
     FM232300 23007KT P6SM BKN100
     FM240500 31012KT P6SM OVC011=



000
FTUS43 KDMX 230539
TAFDSM
TAF
KDSM 230539Z 2306/2406 19007KT P6SM SKC
     FM231600 21011G17KT P6SM BKN100
     FM240000 25008KT P6SM BKN070
     FM240400 31011KT P6SM OVC011=



000
FTUS43 KDMX 230539
TAFALO
TAF
KALO 230539Z 2306/2406 20011KT P6SM SKC
     FM231500 21011G17KT P6SM BKN120
     FM240000 27008KT P6SM BKN080
     FM240300 31010KT P6SM OVC011=



000
FTUS43 KDMX 230539
TAFALO
TAF
KALO 230539Z 2306/2406 20011KT P6SM SKC
     FM231500 21011G17KT P6SM BKN120
     FM240000 27008KT P6SM BKN080
     FM240300 31010KT P6SM OVC011=



000
FTUS43 KDMX 230539
TAFOTM
TAF
KOTM 230539Z 2306/2406 22006KT P6SM OVC022
      TEMPO 2306/2308 SCT022
     FM230800 20006KT P6SM SKC
     FM231600 22011G16KT P6SM SKC
     FM232300 23007KT P6SM BKN100
     FM240500 31012KT P6SM OVC011=



000
FTUS43 KDMX 230539
TAFFOD
TAF
KFOD 230539Z 2306/2406 19010KT P6SM SKC
     FM231400 23010KT P6SM BKN150
     FM240000 32010KT P6SM OVC011=



000
FTUS43 KDMX 230539
TAFDSM
TAF
KDSM 230539Z 2306/2406 19007KT P6SM SKC
     FM231600 21011G17KT P6SM BKN100
     FM240000 25008KT P6SM BKN070
     FM240400 31011KT P6SM OVC011=



000
FTUS43 KDMX 230539
TAFMCW
TAF
KMCW 230539Z 2306/2406 20011KT P6SM SKC
     FM231400 22012G18KT P6SM BKN120
     FM240000 31013G18KT P6SM OVC011=



    US Dept of Commerce
    National Oceanic and Atmospheric Administration
    National Weather Service
    1325 East West Highway
    Silver Spring, MD 20910
    Page Author: NWS Internet Services Team
Disclaimer
Information Quality
Credits
Glossary
Privacy Policy
Freedom of Information Act (FOIA)
About Us
Career Opportunities